createdAt,value
2019-06-01T00:01:57.640Z,16.94
2019-06-01T00:07:06.329Z,16.79
2019-06-01T00:12:13.946Z,16.86
2019-06-01T00:17:19.460Z,16.82
2019-06-01T00:22:25.419Z,16.82
2019-06-01T00:27:30.955Z,16.82
2019-06-01T00:32:36.493Z,16.91
2019-06-01T00:37:45.620Z,16.88
2019-06-01T00:42:52.440Z,17.06
2019-06-01T00:47:58.158Z,16.82
2019-06-01T00:53:03.952Z,16.80
2019-06-01T00:58:09.619Z,16.79
2019-06-01T01:03:15.215Z,16.76
2019-06-01T01:08:25.704Z,16.77
2019-06-01T01:13:28.047Z,16.77
2019-06-01T01:18:36.867Z,16.78
2019-06-01T01:23:46.091Z,16.72
2019-06-01T01:28:52.629Z,16.75
2019-06-01T01:33:58.465Z,16.78
2019-06-01T01:39:08.659Z,16.83
2019-06-01T01:44:14.504Z,16.76
2019-06-01T01:49:20.033Z,16.81
2019-06-01T01:54:25.550Z,16.81
2019-06-01T01:59:31.542Z,16.71
2019-06-01T02:04:37.098Z,16.78
2019-06-01T02:09:42.645Z,16.78
2019-06-01T02:14:48.173Z,16.73
2019-06-01T02:19:54.116Z,16.74
2019-06-01T02:25:00.233Z,16.59
2019-06-01T02:30:06.349Z,16.64
2019-06-01T02:35:13.408Z,16.63
2019-06-01T02:40:21.394Z,16.83
2019-06-01T02:45:27.315Z,16.70
2019-06-01T02:50:32.820Z,16.58
2019-06-01T02:55:38.346Z,16.50
2019-06-01T03:01:23.482Z,16.76
2019-06-01T03:06:33.985Z,16.19
2019-06-01T03:11:41.579Z,16.47
2019-06-01T03:16:50.009Z,16.61
2019-06-01T03:21:59.654Z,16.66
2019-06-01T03:27:08.254Z,16.47
2019-06-01T03:32:34.452Z,16.74
2019-06-01T03:37:22.809Z,16.89
2019-06-01T03:42:30.596Z,16.83
2019-06-01T03:47:38.054Z,16.99
2019-06-01T03:52:43.627Z,17.14
2019-06-01T03:57:49.768Z,17.30
2019-06-01T04:02:55.253Z,17.56
2019-06-01T04:08:01.334Z,17.69
2019-06-01T04:13:07.990Z,18.43
2019-06-01T04:18:14.149Z,18.07
2019-06-01T04:23:19.624Z,18.05
2019-06-01T04:28:25.287Z,18.22
2019-06-01T04:33:31.160Z,18.18
2019-06-01T04:38:42.601Z,18.31
2019-06-01T04:43:48.957Z,18.32
2019-06-01T04:48:54.441Z,18.15
2019-06-01T04:54:00.066Z,18.51
2019-06-01T04:59:06.815Z,18.13
2019-06-01T05:04:13.271Z,18.75
2019-06-01T05:09:19.024Z,20.59
2019-06-01T05:14:24.889Z,21.20
2019-06-01T05:19:30.395Z,20.75
2019-06-01T05:24:35.840Z,21.46
2019-06-01T05:29:41.344Z,22.39
2019-06-01T05:34:46.920Z,20.84
2019-06-01T05:39:52.473Z,20.79
2019-06-01T05:45:00.693Z,20.36
2019-06-01T05:50:06.778Z,21.32
2019-06-01T05:55:12.966Z,21.72
2019-06-01T06:00:21.057Z,21.83
2019-06-01T06:05:26.850Z,23.12
2019-06-01T06:10:33.904Z,23.10
2019-06-01T06:15:40.744Z,22.47
2019-06-01T06:20:46.309Z,24.10
2019-06-01T06:25:51.843Z,24.79
2019-06-01T06:30:57.359Z,24.77
2019-06-01T06:36:03.023Z,24.72
2019-06-01T06:41:08.706Z,25.52
2019-06-01T06:46:15.041Z,26.00
2019-06-01T06:51:21.275Z,25.07
2019-06-01T06:56:27.017Z,26.22
2019-06-01T07:01:32.525Z,25.77
2019-06-01T07:06:38.051Z,25.38
2019-06-01T07:11:43.560Z,25.52
2019-06-01T07:16:49.437Z,26.22
2019-06-01T07:21:54.960Z,26.97
2019-06-01T07:27:00.561Z,26.82
2019-06-01T07:32:07.571Z,28.11
2019-06-01T07:37:16.392Z,28.44
2019-06-01T07:42:24.423Z,28.37
2019-06-01T07:47:29.638Z,25.60
2019-06-01T07:52:35.328Z,27.19
2019-06-01T07:57:43.527Z,26.40
2019-06-01T08:02:48.139Z,26.68
2019-06-01T08:07:53.708Z,25.41
2019-06-01T08:12:59.148Z,26.08
2019-06-01T08:18:04.995Z,26.01
2019-06-01T08:23:10.602Z,25.52
2019-06-01T08:28:16.195Z,24.83
2019-06-01T08:33:24.808Z,25.38
2019-06-01T08:38:29.638Z,25.57
2019-06-01T08:43:35.376Z,25.61
2019-06-01T08:48:41.046Z,27.15
2019-06-01T08:53:46.632Z,26.92
2019-06-01T08:58:52.103Z,26.77
2019-06-01T09:03:57.655Z,25.82
2019-06-01T09:09:03.437Z,25.79
2019-06-01T09:14:09.075Z,27.52
2019-06-01T09:19:14.724Z,28.82
2019-06-01T09:24:20.266Z,28.67
2019-06-01T09:29:25.873Z,28.52
2019-06-01T09:34:32.451Z,26.81
2019-06-01T09:39:38.185Z,27.37
2019-06-01T09:44:44.488Z,27.12
2019-06-01T09:49:50.557Z,26.76
2019-06-01T09:54:56.157Z,26.24
2019-06-01T10:00:01.903Z,26.73
2019-06-01T10:05:09.188Z,27.23
2019-06-01T10:10:14.729Z,27.00
2019-06-01T10:15:20.537Z,27.64
2019-06-01T10:20:26.012Z,29.34
2019-06-01T10:25:32.439Z,29.59
2019-06-01T10:30:38.168Z,29.03
2019-06-01T10:35:43.811Z,27.85
2019-06-01T10:40:49.407Z,27.85
2019-06-01T10:45:54.866Z,27.48
2019-06-01T10:51:00.752Z,26.14
2019-06-01T10:56:06.673Z,27.79
2019-06-01T11:01:12.246Z,28.08
2019-06-01T11:06:17.767Z,29.27
2019-06-01T11:11:23.266Z,30.04
2019-06-01T11:16:28.825Z,26.88
2019-06-01T11:21:35.530Z,28.61
2019-06-01T11:26:41.979Z,29.35
2019-06-01T11:31:47.573Z,29.89
2019-06-01T11:37:04.897Z,27.78
2019-06-01T11:42:00.217Z,29.72
2019-06-01T11:47:07.098Z,29.50
2019-06-01T11:52:13.153Z,28.87
2019-06-01T11:57:18.638Z,27.34
2019-06-01T12:02:24.056Z,28.00
2019-06-01T12:07:30.694Z,27.15
2019-06-01T12:12:36.181Z,27.14
2019-06-01T12:17:42.904Z,27.94
2019-06-01T12:22:48.623Z,28.05
2019-06-01T12:27:54.191Z,28.97
2019-06-01T12:33:00.493Z,29.32
2019-06-01T12:38:07.211Z,28.11
2019-06-01T12:43:12.963Z,28.79
2019-06-01T12:48:18.481Z,27.60
2019-06-01T12:53:26.694Z,27.09
2019-06-01T12:58:32.146Z,29.00
2019-06-01T13:03:37.646Z,27.87
2019-06-01T13:08:43.201Z,27.40
2019-06-01T13:13:51.388Z,27.39
2019-06-01T13:18:59.090Z,27.75
2019-06-01T13:24:04.881Z,28.87
2019-06-01T13:29:10.471Z,28.22
2019-06-01T13:34:15.931Z,28.08
2019-06-01T13:39:21.595Z,28.37
2019-06-01T13:44:27.205Z,27.90
2019-06-01T13:49:32.728Z,27.37
2019-06-01T13:54:40.249Z,27.58
2019-06-01T13:59:48.430Z,27.17
2019-06-01T14:04:54.466Z,27.94
2019-06-01T14:10:00.134Z,28.23
2019-06-01T14:15:06.305Z,28.53
2019-06-01T14:20:13.598Z,29.53
2019-06-01T14:25:19.358Z,28.86
2019-06-01T14:30:24.855Z,26.96
2019-06-01T14:35:35.550Z,27.94
2019-06-01T14:40:41.363Z,26.71
2019-06-01T14:45:47.352Z,27.17
2019-06-01T14:50:53.787Z,26.89
2019-06-01T14:56:01.927Z,27.39
2019-06-01T15:01:07.861Z,27.87
2019-06-01T15:06:13.422Z,27.61
2019-06-01T15:11:18.944Z,26.98
2019-06-01T15:16:24.707Z,27.38
2019-06-01T15:21:32.058Z,28.69
2019-06-01T15:26:37.803Z,28.99
2019-06-01T15:31:43.314Z,28.69
2019-06-01T15:36:48.773Z,28.73
2019-06-01T15:41:55.197Z,29.11
2019-06-01T15:47:02.038Z,28.32
2019-06-01T15:52:09.332Z,28.80
2019-06-01T15:57:15.009Z,28.91
2019-06-01T16:02:20.579Z,29.00
2019-06-01T16:07:26.099Z,27.11
2019-06-01T16:12:31.653Z,28.15
2019-06-01T16:17:37.221Z,28.06
2019-06-01T16:22:42.774Z,28.38
2019-06-01T16:27:48.199Z,28.56
2019-06-01T16:32:54.451Z,28.25
2019-06-01T16:38:02.438Z,26.74
2019-06-01T16:43:08.694Z,27.80
2019-06-01T16:48:14.176Z,27.76
2019-06-01T16:53:19.681Z,27.99
2019-06-01T16:58:26.779Z,26.57
2019-06-01T17:03:32.327Z,26.31
2019-06-01T17:08:37.842Z,26.48
2019-06-01T17:13:43.714Z,26.28
2019-06-01T17:18:49.224Z,25.76
2019-06-01T17:23:54.764Z,25.60
2019-06-01T17:29:00.358Z,25.75
2019-06-01T17:34:06.544Z,25.96
2019-06-01T17:39:12.356Z,25.50
2019-06-01T17:44:17.921Z,25.47
2019-06-01T17:49:23.387Z,25.31
2019-06-01T17:54:28.844Z,25.28
2019-06-01T17:59:36.075Z,25.29
2019-06-01T18:04:41.623Z,25.43
2019-06-01T18:09:47.168Z,25.36
2019-06-01T18:14:52.734Z,25.19
2019-06-01T18:19:58.258Z,24.85
2019-06-01T18:25:06.457Z,25.10
2019-06-01T18:30:12.818Z,25.30
2019-06-01T18:35:19.759Z,25.16
2019-06-01T18:40:26.860Z,25.15
2019-06-01T18:45:33.447Z,25.15
2019-06-01T18:50:40.109Z,24.87
2019-06-01T18:55:45.811Z,24.61
2019-06-01T19:00:53.052Z,24.58
2019-06-01T19:05:58.715Z,24.45
2019-06-01T19:11:28.290Z,24.14
2019-06-01T19:16:19.905Z,23.98
2019-06-01T19:21:29.119Z,23.91
2019-06-01T19:26:37.229Z,23.63
2019-06-01T19:31:45.213Z,23.61
2019-06-01T19:36:53.567Z,23.55
2019-06-01T19:42:00.478Z,23.52
2019-06-01T19:47:09.804Z,23.37
2019-06-01T19:52:16.832Z,23.04
2019-06-01T19:57:23.977Z,23.06
2019-06-01T20:02:34.044Z,22.79
2019-06-01T20:07:38.425Z,22.72
2019-06-01T20:12:44.993Z,22.34
2019-06-01T20:17:51.660Z,22.21
2019-06-01T20:22:57.669Z,22.42
2019-06-01T20:28:05.277Z,21.91
2019-06-01T20:33:15.861Z,21.66
2019-06-01T20:38:23.369Z,21.65
2019-06-01T20:43:32.510Z,21.55
2019-06-01T20:48:38.676Z,21.42
2019-06-01T20:53:47.471Z,21.18
2019-06-01T20:58:55.099Z,21.25
2019-06-01T21:04:04.078Z,21.13
2019-06-01T21:09:10.285Z,20.78
2019-06-01T21:14:17.563Z,20.77
2019-06-01T21:19:24.488Z,20.62
2019-06-01T21:24:30.369Z,20.51
2019-06-01T21:29:37.222Z,20.55
2019-06-01T21:34:42.976Z,20.28
2019-06-01T21:39:48.543Z,20.13
2019-06-01T21:44:54.237Z,20.18
2019-06-01T21:50:00.210Z,19.90
2019-06-01T21:55:06.419Z,19.92
2019-06-01T22:00:14.123Z,19.94
2019-06-01T22:05:22.994Z,19.63
2019-06-01T22:10:28.776Z,19.56
2019-06-01T22:15:34.651Z,19.46
2019-06-01T22:20:40.962Z,19.41
2019-06-01T22:25:46.464Z,19.28
2019-06-01T22:30:51.961Z,19.28
2019-06-01T22:35:57.460Z,19.37
2019-06-01T22:41:03.168Z,19.23
2019-06-01T22:46:13.745Z,18.84
2019-06-01T22:51:20.502Z,18.88
2019-06-01T22:56:27.317Z,18.87
2019-06-01T23:01:33.015Z,18.69
2019-06-01T23:06:38.948Z,18.72
2019-06-01T23:11:44.555Z,18.76
2019-06-01T23:16:50.078Z,18.42
2019-06-01T23:21:55.606Z,18.35
2019-06-01T23:27:01.139Z,18.38
2019-06-01T23:32:09.212Z,18.38
2019-06-01T23:37:14.889Z,18.21
2019-06-01T23:42:20.468Z,18.13
2019-06-01T23:47:27.283Z,18.01
2019-06-01T23:52:34.614Z,18.12
2019-06-01T23:57:43.140Z,17.84
